createdAt,value
2022-12-17T00:00:05.578Z,36.13
2022-12-17T00:02:51.440Z,40.57
2022-12-17T00:05:37.936Z,46.20
2022-12-17T00:08:24.561Z,42.57
2022-12-17T00:11:10.126Z,47.37
2022-12-17T00:13:55.998Z,46.43
2022-12-17T00:16:43.685Z,40.90
2022-12-17T00:19:29.573Z,46.60
2022-12-17T00:22:15.591Z,38.33
2022-12-17T00:25:01.125Z,41.73
2022-12-17T00:27:47.077Z,42.13
2022-12-17T00:30:33.060Z,40.93
2022-12-17T00:33:20.826Z,45.37
2022-12-17T00:36:10.551Z,42.47
2022-12-17T00:38:56.914Z,41.55
2022-12-17T00:41:42.917Z,40.57
2022-12-17T00:44:29.524Z,38.13
2022-12-17T00:47:15.510Z,43.23
2022-12-17T00:50:02.587Z,42.30
2022-12-17T00:52:53.832Z,44.90
2022-12-17T00:55:42.113Z,45.20
2022-12-17T00:58:42.384Z,43.90
2022-12-17T01:01:28.769Z,40.13
2022-12-17T01:04:14.549Z,42.00
2022-12-17T01:07:01.708Z,44.57
2022-12-17T01:09:49.137Z,45.17
2022-12-17T01:12:35.248Z,44.27
2022-12-17T01:15:21.314Z,45.33
2022-12-17T01:18:07.224Z,43.03
2022-12-17T01:21:04.588Z,43.20
2022-12-17T01:23:51.574Z,41.50
2022-12-17T01:26:37.372Z,43.57
2022-12-17T01:29:23.360Z,45.30
2022-12-17T01:32:09.295Z,35.47
2022-12-17T01:34:56.405Z,37.43
2022-12-17T01:37:42.461Z,35.50
2022-12-17T01:40:30.085Z,41.30
2022-12-17T01:43:18.152Z,39.50
2022-12-17T01:46:07.376Z,41.87
2022-12-17T01:48:59.232Z,37.50
2022-12-17T01:51:46.583Z,36.00
2022-12-17T01:54:34.920Z,35.47
2022-12-17T01:57:24.662Z,35.93
2022-12-17T02:00:17.937Z,35.33
2022-12-17T02:03:04.184Z,35.10
2022-12-17T02:05:58.514Z,34.63
2022-12-17T02:08:54.524Z,35.47
2022-12-17T02:11:55.453Z,40.87
2022-12-17T02:14:51.166Z,33.23
2022-12-17T02:17:43.551Z,36.87
2022-12-17T02:20:40.631Z,36.57
2022-12-17T02:23:39.638Z,36.50
2022-12-17T02:26:32.521Z,33.75
2022-12-17T02:29:22.552Z,31.63
2022-12-17T02:32:11.424Z,40.13
2022-12-17T02:35:05.058Z,33.70
2022-12-17T02:37:53.170Z,30.97
2022-12-17T02:40:40.464Z,39.90
2022-12-17T02:43:27.814Z,37.07
2022-12-17T02:46:15.868Z,39.67
2022-12-17T02:49:02.260Z,35.20
2022-12-17T02:51:50.796Z,36.40
2022-12-17T02:54:36.746Z,37.27
2022-12-17T02:57:24.216Z,39.30
2022-12-17T03:00:10.207Z,36.17
2022-12-17T03:02:57.484Z,36.43
2022-12-17T03:05:48.722Z,40.53
2022-12-17T03:08:34.294Z,35.73
2022-12-17T03:11:21.201Z,40.83
2022-12-17T03:14:07.207Z,43.30
2022-12-17T03:16:52.406Z,44.60
2022-12-17T03:19:39.396Z,36.53
2022-12-17T03:22:25.395Z,36.13
2022-12-17T03:25:12.232Z,39.13
2022-12-17T03:27:58.155Z,39.60
2022-12-17T03:30:48.674Z,36.67
2022-12-17T03:33:37.412Z,42.67
2022-12-17T03:36:26.314Z,41.80
2022-12-17T03:39:12.091Z,48.03
2022-12-17T03:41:58.171Z,43.00
2022-12-17T03:44:44.112Z,42.47
2022-12-17T03:47:29.682Z,42.87
2022-12-17T03:50:15.713Z,42.17
2022-12-17T03:53:02.597Z,49.07
2022-12-17T03:55:48.627Z,46.63
2022-12-17T03:58:34.536Z,45.60
2022-12-17T04:01:20.443Z,40.43
2022-12-17T04:04:06.521Z,49.03
2022-12-17T04:06:52.049Z,50.50
2022-12-17T04:09:39.148Z,42.23
2022-12-17T04:12:25.070Z,43.50
2022-12-17T04:15:10.918Z,55.33
2022-12-17T04:17:56.935Z,45.80
2022-12-17T04:20:42.619Z,53.90
2022-12-17T04:23:28.582Z,51.40
2022-12-17T04:26:15.791Z,46.43
2022-12-17T04:29:01.783Z,50.30
2022-12-17T04:31:47.961Z,52.23
2022-12-17T04:34:33.695Z,51.63
2022-12-17T04:37:19.478Z,47.57
2022-12-17T04:40:05.517Z,49.67
2022-12-17T04:42:52.628Z,51.03
2022-12-17T04:45:38.497Z,52.17
2022-12-17T04:48:26.550Z,50.50
2022-12-17T04:51:09.381Z,52.97
2022-12-17T04:53:55.408Z,51.67
2022-12-17T04:56:41.315Z,53.77
2022-12-17T04:59:28.306Z,52.23
2022-12-17T05:02:14.445Z,57.80
2022-12-17T05:05:00.279Z,60.37
2022-12-17T05:07:46.213Z,51.53
2022-12-17T05:10:32.087Z,60.13
2022-12-17T05:13:18.889Z,52.33
2022-12-17T05:16:06.419Z,58.00
2022-12-17T05:18:52.368Z,60.77
2022-12-17T05:21:38.069Z,61.43
2022-12-17T05:24:24.339Z,62.60
2022-12-17T05:27:10.333Z,61.03
2022-12-17T05:29:56.189Z,61.30
2022-12-17T05:32:43.148Z,61.20
2022-12-17T05:35:29.045Z,66.03
2022-12-17T05:38:21.809Z,62.63
2022-12-17T05:41:07.532Z,60.87
2022-12-17T05:43:53.493Z,60.17
2022-12-17T05:46:48.211Z,58.27
2022-12-17T05:49:35.396Z,63.73
2022-12-17T05:52:21.084Z,66.90
2022-12-17T05:55:12.111Z,58.60
2022-12-17T05:57:57.807Z,58.90
2022-12-17T06:00:43.709Z,63.40
2022-12-17T06:03:29.704Z,60.43
2022-12-17T06:06:16.885Z,62.50
2022-12-17T06:09:02.865Z,63.70
2022-12-17T06:11:48.645Z,68.50
2022-12-17T06:14:34.656Z,70.77
2022-12-17T06:17:20.241Z,64.47
2022-12-17T06:20:06.132Z,65.40
2022-12-17T06:22:53.346Z,66.67
2022-12-17T06:25:39.318Z,68.80
2022-12-17T06:28:25.205Z,74.73
2022-12-17T06:31:12.164Z,69.73
2022-12-17T06:33:59.121Z,71.33
2022-12-17T06:36:44.834Z,71.57
2022-12-17T06:39:31.969Z,73.57
2022-12-17T06:42:18.086Z,70.63
2022-12-17T06:45:03.680Z,67.17
2022-12-17T06:47:49.191Z,65.97
2022-12-17T06:50:34.873Z,65.47
2022-12-17T06:53:22.356Z,69.50
2022-12-17T06:56:12.203Z,72.27
2022-12-17T06:58:57.878Z,66.30
2022-12-17T07:01:44.389Z,67.20
2022-12-17T07:04:30.697Z,70.67
2022-12-17T07:07:19.384Z,72.23
2022-12-17T07:10:12.133Z,74.23
2022-12-17T07:12:57.688Z,73.73
2022-12-17T07:15:43.525Z,68.17
2022-12-17T07:18:29.401Z,66.97
2022-12-17T07:21:15.340Z,72.93
2022-12-17T07:24:01.003Z,70.70
2022-12-17T07:26:46.824Z,80.97
2022-12-17T07:29:33.903Z,76.47
2022-12-17T07:32:19.778Z,78.17
2022-12-17T07:35:05.618Z,68.53
2022-12-17T07:37:51.423Z,79.43
2022-12-17T07:40:37.280Z,82.00
2022-12-17T07:43:29.615Z,77.93
2022-12-17T07:46:19.670Z,76.13
2022-12-17T07:49:05.617Z,67.65
2022-12-17T07:51:51.470Z,71.73
2022-12-17T07:54:37.345Z,78.13
2022-12-17T07:57:23.148Z,75.87
2022-12-17T08:00:09.026Z,76.67
2022-12-17T08:02:56.336Z,76.10
2022-12-17T08:05:42.410Z,75.50
2022-12-17T08:08:29.697Z,78.80
2022-12-17T08:11:15.662Z,71.77
2022-12-17T08:14:01.312Z,70.77
2022-12-17T08:16:47.372Z,69.30
2022-12-17T08:19:34.219Z,66.47
2022-12-17T08:22:20.178Z,69.77
2022-12-17T08:25:06.101Z,69.13
2022-12-17T08:27:52.185Z,66.47
2022-12-17T08:30:38.048Z,71.27
2022-12-17T08:33:24.597Z,69.97
2022-12-17T08:36:13.471Z,67.33
2022-12-17T08:38:59.338Z,72.23
2022-12-17T08:41:48.475Z,65.17
2022-12-17T08:44:37.157Z,65.30
2022-12-17T08:47:22.826Z,63.50
2022-12-17T08:50:08.651Z,62.33
2022-12-17T08:52:56.028Z,55.93
2022-12-17T08:55:42.055Z,56.97
2022-12-17T08:58:27.988Z,59.80
2022-12-17T09:01:16.879Z,57.23
2022-12-17T09:04:04.048Z,58.93
2022-12-17T09:06:49.990Z,56.47
2022-12-17T09:09:37.251Z,53.77
2022-12-17T09:12:23.885Z,58.70
2022-12-17T09:15:09.553Z,56.90
2022-12-17T09:17:55.476Z,57.77
2022-12-17T09:20:41.582Z,55.70
2022-12-17T09:23:27.662Z,55.60
2022-12-17T09:26:16.032Z,50.23
2022-12-17T09:29:04.820Z,54.20
2022-12-17T09:31:51.748Z,52.13
2022-12-17T09:34:37.883Z,53.57
2022-12-17T09:37:24.303Z,49.43
2022-12-17T09:40:10.354Z,57.80
2022-12-17T09:43:07.099Z,55.20
2022-12-17T09:46:01.083Z,58.33
2022-12-17T09:48:55.114Z,59.57
2022-12-17T09:51:44.464Z,57.27
2022-12-17T09:54:38.477Z,59.27
2022-12-17T09:57:29.473Z,61.07
2022-12-17T10:00:16.645Z,54.13
2022-12-17T10:03:02.770Z,58.13
2022-12-17T10:05:51.103Z,62.30
2022-12-17T10:08:40.000Z,58.22
2022-12-17T10:11:41.702Z,56.13
2022-12-17T10:14:35.592Z,52.35
2022-12-17T10:17:23.371Z,54.75
2022-12-17T10:20:12.697Z,56.28
2022-12-17T10:23:05.126Z,57.47
2022-12-17T10:26:02.794Z,52.90
2022-12-17T10:28:51.409Z,51.47
2022-12-17T10:31:41.417Z,55.45
2022-12-17T10:34:35.312Z,46.63
2022-12-17T10:37:21.447Z,49.85
2022-12-17T10:40:15.009Z,47.60
2022-12-17T10:43:12.993Z,46.75
2022-12-17T10:45:58.819Z,45.38
2022-12-17T10:48:48.273Z,42.30
2022-12-17T10:51:50.251Z,42.70
2022-12-17T10:54:49.130Z,41.55
2022-12-17T10:57:43.733Z,45.50
2022-12-17T11:00:49.814Z,43.22
2022-12-17T11:03:51.484Z,47.80
2022-12-17T11:06:45.129Z,47.88
2022-12-17T11:09:45.804Z,43.97
2022-12-17T11:12:32.900Z,45.47
2022-12-17T11:15:27.817Z,47.35
2022-12-17T11:18:14.686Z,45.45
2022-12-17T11:21:09.120Z,42.05
2022-12-17T11:24:01.573Z,43.00
2022-12-17T11:26:51.344Z,40.85
2022-12-17T11:29:37.100Z,41.60
2022-12-17T11:33:19.261Z,43.17
2022-12-17T11:36:13.021Z,42.70
2022-12-17T11:39:08.923Z,44.45
2022-12-17T11:42:10.856Z,42.80
2022-12-17T11:45:09.493Z,41.70
2022-12-17T11:48:02.822Z,37.97
2022-12-17T11:50:59.417Z,34.65
2022-12-17T11:54:07.649Z,38.95
2022-12-17T11:56:58.337Z,40.45
2022-12-17T12:02:58.131Z,37.13
2022-12-17T12:05:56.855Z,41.67
2022-12-17T12:08:46.488Z,40.80
2022-12-17T12:11:45.399Z,40.75
2022-12-17T12:14:47.704Z,42.00
2022-12-17T12:17:57.871Z,38.75
2022-12-17T12:21:14.132Z,44.00
2022-12-17T12:24:13.161Z,44.38
2022-12-17T12:27:10.688Z,45.92
2022-12-17T12:30:03.172Z,44.92
2022-12-17T12:32:59.892Z,39.80
2022-12-17T12:35:48.232Z,39.92
2022-12-17T12:38:44.324Z,44.67
2022-12-17T12:41:38.841Z,46.83
2022-12-17T12:44:40.327Z,48.63
2022-12-17T12:47:36.515Z,50.28
2022-12-17T12:50:36.557Z,47.70
2022-12-17T12:53:22.910Z,52.25
2022-12-17T12:56:08.961Z,47.78
2022-12-17T12:58:55.486Z,52.67
2022-12-17T13:01:53.247Z,55.60
2022-12-17T13:04:53.554Z,53.75
2022-12-17T13:07:25.408Z,52.30
2022-12-17T13:09:57.034Z,53.58
2022-12-17T13:12:32.549Z,50.28
2022-12-17T13:15:18.020Z,51.72
2022-12-17T13:18:00.388Z,48.97
2022-12-17T13:20:32.657Z,47.08
2022-12-17T13:23:19.464Z,51.92
2022-12-17T13:25:47.815Z,49.58
2022-12-17T13:28:30.772Z,44.95
2022-12-17T13:31:03.549Z,46.53
2022-12-17T13:33:45.044Z,46.22
2022-12-17T13:36:21.635Z,52.08
2022-12-17T13:38:58.451Z,51.50
2022-12-17T13:41:31.541Z,59.73
2022-12-17T13:44:04.207Z,57.67
2022-12-17T13:46:46.873Z,61.77
2022-12-17T13:49:22.042Z,58.97
2022-12-17T13:52:05.204Z,66.43
2022-12-17T13:54:36.460Z,66.87
2022-12-17T13:57:10.629Z,65.00
2022-12-17T13:59:39.644Z,60.23
2022-12-17T14:02:08.052Z,63.57
2022-12-17T14:04:37.825Z,60.27
2022-12-17T14:07:07.135Z,60.72
2022-12-17T14:09:40.151Z,55.30
2022-12-17T14:12:24.596Z,53.93
2022-12-17T14:14:57.095Z,52.70
2022-12-17T14:17:27.742Z,51.00
2022-12-17T14:22:36.167Z,53.30
2022-12-17T14:25:12.684Z,56.83
2022-12-17T14:27:42.615Z,64.97
2022-12-17T14:30:25.038Z,55.58
2022-12-17T14:32:53.582Z,61.83
2022-12-17T14:35:28.533Z,61.27
2022-12-17T14:37:57.364Z,63.10
2022-12-17T14:40:27.321Z,61.53
2022-12-17T14:43:01.521Z,64.60
2022-12-17T14:45:30.539Z,64.87
2022-12-17T14:48:00.606Z,64.73
2022-12-17T14:50:34.022Z,61.30
2022-12-17T14:53:06.918Z,63.60
2022-12-17T14:55:38.699Z,64.47
2022-12-17T14:58:18.835Z,62.70
2022-12-17T15:00:51.852Z,63.85
2022-12-17T15:03:24.914Z,62.60
2022-12-17T15:05:59.217Z,61.10
2022-12-17T15:08:28.810Z,63.43
2022-12-17T15:10:58.628Z,60.37
2022-12-17T15:13:27.099Z,61.95
2022-12-17T15:15:55.385Z,63.97
2022-12-17T15:20:56.043Z,71.57
2022-12-17T15:23:25.885Z,78.07
2022-12-17T15:25:55.467Z,78.60
2022-12-17T15:28:24.328Z,81.20
2022-12-17T15:30:52.747Z,85.90
2022-12-17T15:33:21.231Z,87.70
2022-12-17T15:35:49.481Z,86.20
2022-12-17T15:38:19.161Z,89.33
2022-12-17T15:40:47.496Z,88.50
2022-12-17T15:43:15.911Z,88.07
2022-12-17T15:45:48.065Z,91.93
2022-12-17T15:48:19.556Z,89.77
2022-12-17T15:50:50.073Z,93.17
2022-12-17T15:55:47.918Z,95.43
2022-12-17T15:58:16.661Z,92.97
2022-12-17T16:00:45.042Z,103.07
2022-12-17T16:03:14.107Z,101.90
2022-12-17T16:05:42.486Z,96.37
2022-12-17T16:08:10.877Z,99.13
2022-12-17T16:10:41.008Z,98.50
2022-12-17T16:13:09.337Z,107.85
2022-12-17T16:15:37.593Z,113.70
2022-12-17T16:18:06.176Z,107.60
2022-12-17T16:20:34.608Z,106.60
2022-12-17T16:23:03.145Z,103.33
2022-12-17T16:25:31.660Z,104.83
2022-12-17T16:28:01.353Z,103.33
2022-12-17T16:30:29.672Z,101.65
2022-12-17T16:32:59.867Z,100.13
2022-12-17T16:35:29.404Z,101.47
2022-12-17T16:37:57.647Z,104.47
2022-12-17T16:40:26.228Z,99.73
2022-12-17T16:42:54.453Z,100.03
2022-12-17T16:45:24.076Z,99.27
2022-12-17T16:47:52.352Z,105.00
2022-12-17T16:50:20.794Z,105.57
2022-12-17T16:52:49.066Z,107.50
2022-12-17T16:55:17.495Z,106.60
2022-12-17T16:57:48.572Z,111.40
2022-12-17T17:00:18.323Z,108.13
2022-12-17T17:02:52.938Z,111.00
2022-12-17T17:05:21.904Z,121.83
2022-12-17T17:07:50.164Z,126.90
2022-12-17T17:10:18.564Z,127.47
2022-12-17T17:12:46.938Z,130.17
2022-12-17T17:15:15.201Z,138.20
2022-12-17T17:17:55.142Z,142.00
2022-12-17T17:20:26.388Z,141.33
2022-12-17T17:22:57.630Z,140.05
2022-12-17T17:25:34.730Z,142.67
2022-12-17T17:28:12.475Z,144.70
2022-12-17T17:30:40.794Z,152.13
2022-12-17T17:33:09.129Z,147.30
2022-12-17T17:35:38.739Z,151.20
2022-12-17T17:38:07.042Z,144.18
2022-12-17T17:40:35.421Z,156.20
2022-12-17T17:43:03.693Z,154.63
2022-12-17T17:45:31.980Z,168.53
2022-12-17T17:48:00.316Z,163.10
2022-12-17T17:50:28.556Z,174.20
2022-12-17T17:52:58.262Z,174.90
2022-12-17T17:55:28.496Z,170.90
2022-12-17T17:57:56.799Z,178.30
2022-12-17T18:00:25.125Z,165.03
2022-12-17T18:02:54.006Z,166.53
2022-12-17T18:05:24.192Z,178.27
2022-12-17T18:10:24.859Z,178.30
2022-12-17T18:13:10.683Z,180.33
2022-12-17T18:15:39.206Z,167.00
2022-12-17T18:18:14.201Z,179.83
2022-12-17T18:20:43.173Z,186.97
2022-12-17T18:23:11.487Z,178.87
2022-12-17T18:25:41.222Z,165.83
2022-12-17T18:28:09.893Z,178.75
2022-12-17T18:30:40.045Z,179.07
2022-12-17T18:33:08.329Z,176.32
2022-12-17T18:35:36.732Z,177.33
2022-12-17T18:38:05.037Z,175.67
2022-12-17T18:40:33.738Z,185.03
2022-12-17T18:43:21.193Z,180.73
2022-12-17T18:45:49.512Z,169.97
2022-12-17T18:48:17.846Z,169.93
2022-12-17T18:50:46.147Z,173.53
2022-12-17T18:53:14.519Z,175.63
2022-12-17T18:55:42.922Z,182.23
2022-12-17T18:58:12.831Z,172.30
2022-12-17T19:00:41.280Z,166.63
2022-12-17T19:03:10.167Z,184.13
2022-12-17T19:05:45.157Z,166.53
2022-12-17T19:08:15.099Z,179.27
2022-12-17T19:10:43.492Z,182.77
2022-12-17T19:13:13.217Z,169.40
2022-12-17T19:15:41.754Z,174.52
2022-12-17T19:18:10.283Z,172.43
2022-12-17T19:20:38.611Z,179.03
2022-12-17T19:23:06.850Z,183.03
2022-12-17T19:25:35.735Z,181.23
2022-12-17T19:28:04.058Z,187.00
2022-12-17T19:30:33.761Z,168.90
2022-12-17T19:33:02.343Z,167.02
2022-12-17T19:35:30.680Z,175.40
2022-12-17T19:37:58.985Z,163.93
2022-12-17T19:40:27.471Z,167.57
2022-12-17T19:42:56.541Z,163.50
2022-12-17T19:45:24.974Z,160.77
2022-12-17T19:47:55.372Z,161.17
2022-12-17T19:52:51.951Z,167.63
2022-12-17T19:55:21.576Z,154.60
2022-12-17T19:57:49.980Z,170.02
2022-12-17T20:00:18.852Z,156.27
2022-12-17T20:02:47.342Z,150.73
2022-12-17T20:05:17.265Z,141.33
2022-12-17T20:07:45.755Z,147.30
2022-12-17T20:10:14.290Z,140.20
2022-12-17T20:12:42.763Z,145.00
2022-12-17T20:15:12.382Z,145.30
2022-12-17T20:17:40.880Z,132.83
2022-12-17T20:20:10.733Z,144.27
2022-12-17T20:22:40.518Z,144.27
2022-12-17T20:25:11.323Z,152.13
2022-12-17T20:27:39.795Z,144.53
2022-12-17T20:30:09.769Z,142.23
2022-12-17T20:32:38.642Z,138.75
2022-12-17T20:35:08.779Z,135.43
2022-12-17T20:37:37.455Z,136.75
2022-12-17T20:40:09.517Z,136.03
2022-12-17T20:42:38.114Z,138.00
2022-12-17T20:45:07.351Z,157.43
2022-12-17T20:47:35.709Z,153.80
2022-12-17T20:50:04.459Z,142.70
2022-12-17T20:52:32.740Z,138.10
2022-12-17T20:55:01.103Z,155.40
2022-12-17T20:57:31.142Z,167.53
2022-12-17T20:59:59.457Z,163.02
2022-12-17T21:02:27.883Z,164.40
2022-12-17T21:04:56.322Z,163.17
2022-12-17T21:07:24.607Z,167.90
2022-12-17T21:09:52.940Z,156.77
2022-12-17T21:12:21.519Z,159.90
2022-12-17T21:14:51.360Z,153.60
2022-12-17T21:17:19.790Z,146.77
2022-12-17T21:19:48.194Z,155.00
2022-12-17T21:22:16.783Z,156.83
2022-12-17T21:24:45.120Z,157.30
2022-12-17T21:27:15.093Z,159.83
2022-12-17T21:29:43.577Z,153.23
2022-12-17T21:32:13.359Z,161.47
2022-12-17T21:34:41.660Z,163.25
2022-12-17T21:37:11.189Z,158.40
2022-12-17T21:39:39.625Z,161.02
2022-12-17T21:42:25.423Z,166.17
2022-12-17T21:44:53.706Z,171.93
2022-12-17T21:47:23.891Z,172.93
2022-12-17T21:49:52.391Z,168.30
2022-12-17T21:52:20.667Z,167.93
2022-12-17T21:54:49.007Z,167.50
2022-12-17T21:57:17.556Z,164.50
2022-12-17T21:59:45.840Z,166.20
2022-12-17T22:02:14.228Z,154.13
2022-12-17T22:04:44.369Z,170.93
2022-12-17T22:07:19.531Z,164.38
2022-12-17T22:10:30.564Z,158.13
2022-12-17T22:13:02.952Z,169.53
2022-12-17T22:15:32.427Z,173.07
2022-12-17T22:18:08.207Z,154.90
2022-12-17T22:20:37.941Z,151.13
2022-12-17T22:23:07.409Z,151.10
2022-12-17T22:25:38.486Z,165.93
2022-12-17T22:28:07.145Z,164.80
2022-12-17T22:30:52.803Z,172.20
2022-12-17T22:33:44.394Z,163.80
2022-12-17T22:38:07.602Z,173.07
2022-12-17T22:42:57.840Z,175.43
2022-12-17T22:44:37.955Z,172.23
2022-12-17T22:44:57.853Z,174.57
2022-12-17T22:47:30.471Z,171.83
2022-12-17T22:49:58.663Z,163.40
2022-12-17T22:52:28.763Z,152.73
2022-12-17T22:54:57.620Z,160.23
2022-12-17T22:57:36.661Z,156.10
2022-12-17T23:02:39.940Z,163.83
2022-12-17T23:05:08.995Z,163.93
2022-12-17T23:07:38.768Z,150.37
2022-12-17T23:10:08.268Z,150.50
2022-12-17T23:12:51.594Z,152.18
2022-12-17T23:15:22.616Z,160.03
2022-12-17T23:17:52.818Z,172.67
2022-12-17T23:20:21.787Z,157.73
2022-12-17T23:22:51.465Z,155.53
2022-12-17T23:25:20.296Z,171.80
2022-12-17T23:27:49.191Z,175.80
2022-12-17T23:30:18.640Z,175.83
2022-12-17T23:32:47.673Z,182.02
2022-12-17T23:35:16.303Z,187.17
2022-12-17T23:37:44.619Z,183.67
2022-12-17T23:40:16.609Z,194.90
2022-12-17T23:42:44.920Z,183.13
2022-12-17T23:45:13.187Z,176.00
2022-12-17T23:47:42.272Z,183.20
2022-12-17T23:50:12.386Z,187.97
2022-12-17T23:52:40.999Z,184.30
2022-12-17T23:55:11.591Z,173.33
2022-12-17T23:57:42.145Z,224.27
